createdAt,value
2019-05-03T00:00:22.332Z,99.90
2019-05-03T00:02:53.750Z,99.90
2019-05-03T00:05:33.868Z,99.90
2019-05-03T00:08:04.752Z,99.90
2019-05-03T00:10:34.923Z,99.90
2019-05-03T00:13:04.688Z,99.90
2019-05-03T00:15:42.884Z,99.90
2019-05-03T00:18:12.622Z,99.90
2019-05-03T00:20:42.244Z,99.90
2019-05-03T00:23:12.129Z,99.90
2019-05-03T00:25:41.950Z,99.90
2019-05-03T00:28:13.277Z,99.90
2019-05-03T00:30:43.310Z,99.90
2019-05-03T00:33:12.760Z,99.90
2019-05-03T00:35:46.879Z,99.90
2019-05-03T00:38:16.711Z,99.90
2019-05-03T00:40:46.340Z,99.90
2019-05-03T00:43:15.972Z,99.90
2019-05-03T00:45:45.431Z,99.90
2019-05-03T00:48:15.052Z,99.90
2019-05-03T00:50:44.586Z,99.90
2019-05-03T00:53:14.192Z,99.90
2019-05-03T00:55:43.719Z,99.90
2019-05-03T00:58:13.372Z,99.90
2019-05-03T01:00:42.928Z,99.90
2019-05-03T01:03:12.622Z,99.90
2019-05-03T01:05:42.711Z,99.90
2019-05-03T01:08:12.746Z,99.90
2019-05-03T01:10:42.501Z,99.90
2019-05-03T01:13:12.396Z,99.90
2019-05-03T01:15:43.875Z,99.90
2019-05-03T01:18:15.420Z,99.90
2019-05-03T01:20:45.007Z,99.90
2019-05-03T01:23:14.463Z,99.90
2019-05-03T01:25:44.124Z,99.90
2019-05-03T01:28:13.640Z,99.90
2019-05-03T01:30:43.468Z,99.90
2019-05-03T01:33:12.994Z,99.90
2019-05-03T01:35:42.799Z,99.90
2019-05-03T01:38:12.619Z,99.90
2019-05-03T01:40:42.279Z,99.90
2019-05-03T01:43:11.842Z,99.90
2019-05-03T01:45:42.501Z,99.90
2019-05-03T01:48:22.602Z,99.90
2019-05-03T01:50:59.973Z,99.90
2019-05-03T01:53:34.497Z,99.90
2019-05-03T01:56:04.094Z,99.90
2019-05-03T01:58:33.632Z,99.90
2019-05-03T02:01:22.120Z,99.90
2019-05-03T02:03:53.439Z,99.90
2019-05-03T02:06:23.129Z,99.90
2019-05-03T02:08:52.647Z,99.90
2019-05-03T02:11:22.356Z,99.90
2019-05-03T02:13:52.255Z,99.90
2019-05-03T02:16:21.961Z,99.90
2019-05-03T02:18:51.914Z,99.90
2019-05-03T02:21:21.712Z,99.90
2019-05-03T02:23:52.034Z,99.90
2019-05-03T02:26:22.415Z,99.90
2019-05-03T02:28:52.777Z,99.90
2019-05-03T02:31:23.208Z,99.90
2019-05-03T02:33:53.645Z,99.90
2019-05-03T02:36:23.564Z,99.90
2019-05-03T02:38:53.820Z,99.90
2019-05-03T02:41:23.677Z,99.90
2019-05-03T02:43:56.027Z,99.90
2019-05-03T02:46:30.294Z,99.90
2019-05-03T02:49:10.383Z,99.90
2019-05-03T02:51:39.976Z,99.90
2019-05-03T02:54:09.788Z,99.90
2019-05-03T02:56:39.409Z,99.90
2019-05-03T02:59:09.063Z,99.90
2019-05-03T03:01:38.529Z,99.90
2019-05-03T03:04:08.453Z,99.90
2019-05-03T03:06:39.572Z,99.90
2019-05-03T03:09:09.382Z,99.90
2019-05-03T03:11:39.371Z,99.90
2019-05-03T03:14:11.981Z,99.90
2019-05-03T03:16:45.536Z,99.90
2019-05-03T03:19:16.455Z,99.90
2019-05-03T03:21:48.883Z,99.90
2019-05-03T03:24:20.213Z,99.90
2019-05-03T03:26:51.597Z,99.90
2019-05-03T03:29:25.361Z,99.90
2019-05-03T03:32:00.785Z,99.90
2019-05-03T03:34:38.122Z,99.90
2019-05-03T03:37:09.972Z,99.90
2019-05-03T03:39:37.132Z,99.90
2019-05-03T03:42:08.559Z,99.90
2019-05-03T03:44:38.987Z,99.90
2019-05-03T03:47:11.830Z,99.90
2019-05-03T03:49:46.355Z,99.90
2019-05-03T03:52:16.996Z,99.90
2019-05-03T03:54:49.024Z,99.90
2019-05-03T03:57:19.036Z,99.90
2019-05-03T03:59:49.321Z,99.90
2019-05-03T04:02:19.677Z,99.90
2019-05-03T04:04:49.556Z,99.90
2019-05-03T04:07:19.712Z,99.90
2019-05-03T04:09:50.312Z,99.90
2019-05-03T04:12:21.643Z,99.90
2019-05-03T04:14:56.028Z,99.90
2019-05-03T04:17:32.305Z,99.90
2019-05-03T04:20:02.085Z,99.90
2019-05-03T04:22:31.545Z,99.90
2019-05-03T04:25:01.247Z,99.90
2019-05-03T04:27:30.765Z,99.90
2019-05-03T04:30:00.453Z,99.90
2019-05-03T04:32:30.279Z,99.90
2019-05-03T04:34:59.798Z,99.90
2019-05-03T04:37:29.568Z,99.90
2019-05-03T04:39:59.185Z,99.90
2019-05-03T04:42:28.641Z,99.90
2019-05-03T04:44:58.549Z,99.90
2019-05-03T04:47:28.620Z,99.90
2019-05-03T04:49:58.375Z,99.90
2019-05-03T04:52:27.977Z,99.90
2019-05-03T04:55:01.952Z,99.90
2019-05-03T04:57:40.698Z,99.90
2019-05-03T05:00:05.624Z,99.90
2019-05-03T05:02:35.421Z,99.90
2019-05-03T05:05:06.996Z,99.90
2019-05-03T05:07:36.503Z,99.90
2019-05-03T05:10:07.789Z,99.90
2019-05-03T05:12:37.319Z,99.90
2019-05-03T05:15:07.612Z,97.50
2019-05-03T05:17:45.889Z,96.80
2019-05-03T05:20:35.033Z,96.00
2019-05-03T05:23:05.488Z,94.80
2019-05-03T05:25:48.927Z,89.30
2019-05-03T05:28:20.213Z,81.80
2019-05-03T05:30:49.734Z,74.10
2019-05-03T05:33:21.860Z,74.90
2019-05-03T05:35:52.160Z,78.60
2019-05-03T05:38:21.704Z,69.10
2019-05-03T05:40:51.228Z,67.90
2019-05-03T05:43:20.770Z,63.80
2019-05-03T05:45:50.292Z,65.30
2019-05-03T05:48:21.484Z,60.90
2019-05-03T05:50:51.003Z,59.90
2019-05-03T05:53:20.716Z,58.20
2019-05-03T05:55:51.896Z,55.60
2019-05-03T05:58:41.008Z,53.90
2019-05-03T06:01:18.544Z,50.10
2019-05-03T06:03:48.408Z,50.90
2019-05-03T06:06:36.159Z,52.10
2019-05-03T06:09:11.923Z,48.60
2019-05-03T06:11:44.925Z,45.30
2019-05-03T06:14:24.980Z,43.10
2019-05-03T06:16:56.266Z,43.90
2019-05-03T06:19:30.367Z,44.00
2019-05-03T06:22:05.108Z,41.40
2019-05-03T06:24:54.872Z,42.40
2019-05-03T06:27:26.140Z,41.70
2019-05-03T06:29:57.492Z,42.30
2019-05-03T06:32:31.915Z,42.30
2019-05-03T06:35:01.552Z,43.90
2019-05-03T06:37:35.580Z,42.30
2019-05-03T06:40:07.995Z,42.50
2019-05-03T06:42:37.702Z,38.40
2019-05-03T06:45:11.540Z,39.60
2019-05-03T06:47:40.230Z,36.50
2019-05-03T06:50:10.756Z,39.20
2019-05-03T06:52:40.422Z,38.00
2019-05-03T06:55:10.902Z,37.60
2019-05-03T06:57:48.164Z,34.90
2019-05-03T07:00:19.458Z,35.90
2019-05-03T07:02:59.915Z,35.10
2019-05-03T07:05:31.248Z,33.00
2019-05-03T07:08:17.596Z,32.50
2019-05-03T07:10:49.220Z,34.00
2019-05-03T07:13:18.971Z,33.20
2019-05-03T07:15:48.503Z,32.30
2019-05-03T07:18:18.112Z,32.20
2019-05-03T07:20:49.379Z,32.80
2019-05-03T07:23:19.154Z,32.40
2019-05-03T07:25:48.688Z,32.70
2019-05-03T07:28:18.285Z,34.00
2019-05-03T07:30:47.763Z,35.30
2019-05-03T07:33:21.864Z,34.50
2019-05-03T07:35:51.327Z,36.10
2019-05-03T07:38:20.982Z,35.40
2019-05-03T07:40:50.519Z,33.90
2019-05-03T07:43:20.041Z,32.90
2019-05-03T07:45:49.575Z,33.50
2019-05-03T07:48:19.032Z,33.90
2019-05-03T07:50:48.569Z,34.50
2019-05-03T07:53:18.222Z,36.10
2019-05-03T07:55:58.547Z,35.20
2019-05-03T07:58:29.560Z,36.20
2019-05-03T08:01:06.069Z,38.00
2019-05-03T08:03:31.828Z,36.80
2019-05-03T08:06:01.366Z,34.80
2019-05-03T08:08:31.262Z,34.20
2019-05-03T08:11:00.871Z,35.40
2019-05-03T08:13:30.665Z,35.80
2019-05-03T08:16:00.137Z,38.70
2019-05-03T08:18:29.598Z,40.90
2019-05-03T08:20:59.648Z,42.90
2019-05-03T08:23:30.503Z,42.10
2019-05-03T08:26:00.356Z,41.60
2019-05-03T08:28:30.322Z,42.10
2019-05-03T08:31:07.292Z,42.80
2019-05-03T08:33:47.670Z,40.70
2019-05-03T08:36:17.375Z,40.10
2019-05-03T08:38:47.057Z,42.60
2019-05-03T08:41:18.396Z,41.70
2019-05-03T08:43:47.933Z,42.10
2019-05-03T08:46:17.408Z,42.90
2019-05-03T08:48:46.944Z,41.90
2019-05-03T08:51:16.565Z,44.30
2019-05-03T08:53:46.232Z,44.60
2019-05-03T08:56:15.880Z,45.60
2019-05-03T08:58:45.660Z,44.60
2019-05-03T09:01:15.362Z,45.30
2019-05-03T09:03:45.789Z,44.10
2019-05-03T09:06:15.682Z,45.40
2019-05-03T09:08:45.914Z,43.40
2019-05-03T09:11:17.307Z,43.10
2019-05-03T09:13:48.639Z,44.30
2019-05-03T09:16:18.444Z,44.30
2019-05-03T09:18:48.158Z,45.20
2019-05-03T09:21:17.687Z,45.80
2019-05-03T09:23:47.549Z,45.90
2019-05-03T09:26:17.288Z,47.50
2019-05-03T09:28:47.112Z,46.80
2019-05-03T09:31:16.664Z,47.60
2019-05-03T09:33:46.223Z,47.00
2019-05-03T09:36:15.737Z,48.20
2019-05-03T09:38:45.924Z,48.30
2019-05-03T09:41:15.931Z,50.00
2019-05-03T09:43:45.467Z,47.60
2019-05-03T09:46:15.164Z,46.80
2019-05-03T09:48:45.320Z,46.50
2019-05-03T09:51:15.530Z,46.90
2019-05-03T09:53:47.062Z,46.00
2019-05-03T09:56:18.409Z,45.70
2019-05-03T09:58:48.212Z,46.50
2019-05-03T10:01:17.753Z,47.80
2019-05-03T10:03:47.528Z,46.80
2019-05-03T10:06:17.644Z,46.80
2019-05-03T10:08:47.592Z,46.30
2019-05-03T10:11:18.817Z,46.00
2019-05-03T10:13:48.973Z,47.10
2019-05-03T10:16:19.997Z,49.20
2019-05-03T10:18:49.782Z,47.70
2019-05-03T10:21:21.104Z,48.80
2019-05-03T10:23:54.740Z,47.20
2019-05-03T10:26:24.638Z,46.50
2019-05-03T10:28:55.314Z,46.40
2019-05-03T10:31:26.720Z,47.70
2019-05-03T10:34:01.008Z,47.10
2019-05-03T10:36:30.785Z,49.30
2019-05-03T10:39:00.497Z,47.20
2019-05-03T10:41:30.216Z,47.90
2019-05-03T10:43:59.756Z,47.30
2019-05-03T10:46:29.292Z,46.50
2019-05-03T10:48:58.761Z,46.00
2019-05-03T10:51:30.045Z,46.80
2019-05-03T10:54:00.311Z,47.80
2019-05-03T10:56:31.696Z,47.40
2019-05-03T10:59:03.085Z,48.30
2019-05-03T11:01:35.911Z,49.50
2019-05-03T11:04:05.873Z,48.90
2019-05-03T11:06:35.554Z,50.30
2019-05-03T11:09:06.359Z,50.10
2019-05-03T11:11:36.024Z,49.10
2019-05-03T11:14:05.738Z,49.30
2019-05-03T11:16:35.589Z,46.80
2019-05-03T11:19:05.675Z,45.50
2019-05-03T11:21:35.474Z,44.20
2019-05-03T11:24:05.020Z,44.50
2019-05-03T11:26:35.185Z,45.10
2019-05-03T11:29:05.295Z,46.10
2019-05-03T11:31:39.965Z,47.70
2019-05-03T11:34:11.681Z,45.40
2019-05-03T11:36:59.212Z,45.00
2019-05-03T11:39:28.804Z,45.00
2019-05-03T11:41:59.608Z,46.20
2019-05-03T11:44:38.552Z,44.50
2019-05-03T11:47:09.533Z,44.60
2019-05-03T11:49:39.260Z,45.60
2019-05-03T11:52:08.876Z,45.80
2019-05-03T11:54:39.828Z,44.40
2019-05-03T11:57:26.866Z,45.80
2019-05-03T11:59:56.580Z,44.30
2019-05-03T12:02:30.588Z,44.90
2019-05-03T12:05:02.215Z,45.70
2019-05-03T12:07:39.057Z,44.20
2019-05-03T12:10:13.345Z,43.10
2019-05-03T12:12:46.553Z,43.90
2019-05-03T12:15:16.948Z,44.90
2019-05-03T12:17:58.118Z,45.80
2019-05-03T12:20:28.728Z,44.80
2019-05-03T12:22:58.539Z,43.50
2019-05-03T12:25:30.398Z,43.30
2019-05-03T12:28:01.935Z,45.30
2019-05-03T12:30:32.266Z,45.50
2019-05-03T12:33:02.309Z,45.20
2019-05-03T12:35:35.722Z,45.80
2019-05-03T12:38:05.599Z,46.10
2019-05-03T12:40:35.704Z,46.60
2019-05-03T12:43:06.171Z,47.80
2019-05-03T12:45:36.137Z,47.00
2019-05-03T12:48:05.768Z,48.00
2019-05-03T12:50:35.302Z,45.60
2019-05-03T12:53:05.146Z,45.10
2019-05-03T12:55:35.589Z,44.40
2019-05-03T12:58:06.530Z,44.20
2019-05-03T13:00:40.783Z,44.50
2019-05-03T13:03:18.180Z,44.70
2019-05-03T13:05:47.866Z,46.30
2019-05-03T13:08:37.118Z,46.30
2019-05-03T13:11:06.764Z,47.20
2019-05-03T13:13:36.572Z,47.40
2019-05-03T13:16:06.925Z,48.60
2019-05-03T13:18:36.472Z,48.50
2019-05-03T13:21:06.329Z,49.70
2019-05-03T13:23:36.024Z,48.40
2019-05-03T13:26:06.104Z,49.90
2019-05-03T13:28:35.811Z,49.10
2019-05-03T13:31:06.184Z,49.40
2019-05-03T13:33:35.849Z,47.90
2019-05-03T13:36:05.556Z,48.70
2019-05-03T13:38:35.356Z,49.10
2019-05-03T13:41:06.454Z,49.00
2019-05-03T13:43:36.385Z,50.20
2019-05-03T13:46:05.916Z,51.10
2019-05-03T13:48:45.253Z,50.70
2019-05-03T13:51:06.999Z,49.70
2019-05-03T13:53:36.543Z,52.10
2019-05-03T13:56:06.080Z,48.20
2019-05-03T13:58:35.957Z,48.50
2019-05-03T14:01:06.002Z,47.30
2019-05-03T14:03:35.864Z,47.30
2019-05-03T14:06:08.846Z,45.50
2019-05-03T14:08:37.200Z,46.60
2019-05-03T14:11:06.736Z,45.50
2019-05-03T14:13:36.440Z,46.40
2019-05-03T14:16:06.225Z,46.40
2019-05-03T14:18:36.036Z,45.30
2019-05-03T14:21:07.496Z,45.80
2019-05-03T14:23:55.105Z,47.40
2019-05-03T14:26:24.949Z,47.00
2019-05-03T14:28:54.974Z,48.40
2019-05-03T14:31:25.280Z,49.90
2019-05-03T14:33:55.824Z,49.40
2019-05-03T14:36:28.822Z,49.60
2019-05-03T14:38:58.676Z,49.60
2019-05-03T14:41:28.222Z,50.10
2019-05-03T14:43:57.769Z,50.60
2019-05-03T14:46:32.540Z,50.10
2019-05-03T14:48:58.533Z,49.50
2019-05-03T14:51:28.055Z,49.60
2019-05-03T14:53:59.077Z,50.70
2019-05-03T14:56:34.893Z,49.40
2019-05-03T14:59:22.656Z,48.90
2019-05-03T15:01:55.232Z,50.40
2019-05-03T15:04:25.589Z,49.40
2019-05-03T15:06:57.733Z,50.20
2019-05-03T15:09:26.753Z,49.30
2019-05-03T15:11:56.432Z,50.50
2019-05-03T15:14:26.341Z,49.50
2019-05-03T15:16:56.504Z,49.10
2019-05-03T15:19:26.222Z,50.00
2019-05-03T15:21:56.074Z,49.70
2019-05-03T15:24:25.721Z,49.50
2019-05-03T15:26:55.733Z,52.00
2019-05-03T15:29:25.275Z,51.60
2019-05-03T15:31:55.341Z,51.90
2019-05-03T15:34:25.112Z,53.00
2019-05-03T15:36:54.779Z,53.20
2019-05-03T15:39:25.196Z,53.90
2019-05-03T15:41:54.876Z,54.40
2019-05-03T15:44:42.284Z,55.50
2019-05-03T15:47:14.795Z,55.30
2019-05-03T15:49:44.808Z,56.80
2019-05-03T15:52:15.251Z,56.40
2019-05-03T15:54:45.175Z,57.40
2019-05-03T15:57:15.116Z,57.50
2019-05-03T15:59:45.047Z,57.40
2019-05-03T16:02:15.162Z,57.70
2019-05-03T16:04:45.048Z,58.60
2019-05-03T16:07:14.649Z,58.40
2019-05-03T16:09:44.562Z,58.60
2019-05-03T16:12:14.639Z,57.40
2019-05-03T16:14:44.580Z,57.40
2019-05-03T16:17:14.738Z,57.90
2019-05-03T16:19:47.521Z,58.70
2019-05-03T16:22:16.100Z,58.70
2019-05-03T16:24:47.123Z,60.10
2019-05-03T16:27:18.534Z,59.80
2019-05-03T16:29:48.244Z,60.30
2019-05-03T16:32:17.781Z,59.90
2019-05-03T16:34:47.605Z,59.60
2019-05-03T16:37:29.788Z,59.70
2019-05-03T16:39:59.585Z,58.60
2019-05-03T16:42:29.188Z,59.30
2019-05-03T16:44:58.767Z,59.00
2019-05-03T16:47:28.761Z,59.30
2019-05-03T16:49:58.289Z,59.80
2019-05-03T16:52:28.061Z,60.40
2019-05-03T16:54:58.000Z,61.20
2019-05-03T16:57:27.687Z,60.00
2019-05-03T16:59:57.464Z,61.60
2019-05-03T17:02:28.880Z,61.10
2019-05-03T17:05:04.759Z,61.50
2019-05-03T17:07:35.941Z,63.60
2019-05-03T17:10:28.828Z,63.30
2019-05-03T17:12:58.729Z,62.50
2019-05-03T17:15:29.380Z,62.60
2019-05-03T17:17:58.920Z,63.60
2019-05-03T17:20:28.452Z,62.60
2019-05-03T17:22:57.994Z,63.90
2019-05-03T17:25:27.516Z,65.40
2019-05-03T17:27:56.994Z,64.60
2019-05-03T17:30:33.775Z,67.70
2019-05-03T17:32:57.809Z,66.80
2019-05-03T17:35:27.336Z,68.10
2019-05-03T17:37:57.081Z,68.70
2019-05-03T17:40:28.316Z,69.30
2019-05-03T17:43:05.783Z,68.40
2019-05-03T17:45:49.265Z,69.80
2019-05-03T17:48:18.816Z,69.50
2019-05-03T17:50:48.339Z,71.80
2019-05-03T17:53:25.410Z,73.90
2019-05-03T17:55:59.357Z,74.10
2019-05-03T17:58:46.968Z,75.50
2019-05-03T18:01:18.135Z,74.70
2019-05-03T18:03:49.320Z,76.90
2019-05-03T18:06:20.415Z,77.90
2019-05-03T18:08:56.252Z,84.10
2019-05-03T18:11:28.110Z,82.10
2019-05-03T18:13:57.764Z,85.30
2019-05-03T18:16:27.528Z,86.40
2019-05-03T18:18:57.220Z,89.40
2019-05-03T18:21:27.044Z,89.70
2019-05-03T18:23:56.825Z,89.20
2019-05-03T18:26:26.350Z,88.50
2019-05-03T18:28:56.152Z,90.00
2019-05-03T18:31:25.962Z,88.60
2019-05-03T18:33:55.730Z,91.40
2019-05-03T18:36:25.430Z,90.00
2019-05-03T18:38:56.750Z,90.50
2019-05-03T18:41:26.779Z,89.60
2019-05-03T18:44:16.240Z,89.50
2019-05-03T18:46:47.647Z,91.00
2019-05-03T18:49:17.289Z,91.40
2019-05-03T18:51:46.878Z,90.80
2019-05-03T18:54:16.676Z,92.40
2019-05-03T18:56:46.484Z,93.00
2019-05-03T18:59:16.303Z,92.80
2019-05-03T19:01:45.837Z,93.00
2019-05-03T19:04:31.366Z,93.90
2019-05-03T19:07:02.051Z,93.10
2019-05-03T19:09:27.612Z,92.90
2019-05-03T19:12:11.113Z,93.10
2019-05-03T19:14:40.666Z,92.80
2019-05-03T19:17:11.988Z,92.90
2019-05-03T19:19:46.388Z,93.60
2019-05-03T19:22:16.200Z,93.90
2019-05-03T19:24:46.234Z,93.50
2019-05-03T19:27:15.760Z,93.50
2019-05-03T19:29:45.539Z,94.10
2019-05-03T19:32:15.113Z,94.60
2019-05-03T19:34:50.808Z,95.20
2019-05-03T19:37:16.005Z,95.60
2019-05-03T19:39:45.526Z,95.70
2019-05-03T19:42:15.478Z,95.40
2019-05-03T19:44:45.446Z,96.00
2019-05-03T19:47:15.697Z,95.80
2019-05-03T19:49:45.479Z,96.00
2019-05-03T19:52:16.676Z,96.10
2019-05-03T19:54:46.200Z,95.70
2019-05-03T19:57:17.393Z,96.10
2019-05-03T19:59:51.200Z,96.40
2019-05-03T20:02:39.088Z,96.50
2019-05-03T20:05:28.412Z,96.90
2019-05-03T20:07:59.508Z,97.40
2019-05-03T20:10:30.816Z,97.20
2019-05-03T20:13:00.510Z,97.70
2019-05-03T20:15:30.405Z,97.70
2019-05-03T20:18:00.389Z,97.60
2019-05-03T20:20:30.392Z,98.00
2019-05-03T20:23:00.159Z,98.20
2019-05-03T20:25:30.448Z,99.00
2019-05-03T20:27:59.983Z,99.10
2019-05-03T20:30:29.509Z,98.90
2019-05-03T20:32:59.040Z,99.50
2019-05-03T20:35:28.566Z,99.80
2019-05-03T20:37:58.104Z,99.80
2019-05-03T20:40:28.521Z,99.70
2019-05-03T20:43:15.907Z,99.90
2019-05-03T20:45:50.091Z,99.90
2019-05-03T20:48:21.271Z,99.90
2019-05-03T20:50:50.791Z,99.90
2019-05-03T20:53:20.324Z,99.90
2019-05-03T20:55:49.844Z,99.90
2019-05-03T20:58:19.382Z,99.90
2019-05-03T21:00:49.000Z,99.90
2019-05-03T21:03:18.988Z,99.90
2019-05-03T21:05:48.529Z,99.90
2019-05-03T21:08:18.059Z,99.90
2019-05-03T21:10:47.575Z,99.90
2019-05-03T21:13:17.122Z,99.90
2019-05-03T21:16:00.011Z,99.90
2019-05-03T21:18:34.552Z,99.90
2019-05-03T21:21:08.987Z,99.90
2019-05-03T21:23:40.247Z,99.90
2019-05-03T21:26:13.663Z,99.90
2019-05-03T21:28:41.475Z,99.90
2019-05-03T21:31:10.996Z,99.90
2019-05-03T21:33:40.476Z,99.90
2019-05-03T21:36:10.019Z,99.90
2019-05-03T21:38:40.912Z,99.90
2019-05-03T21:41:10.718Z,99.90
2019-05-03T21:43:40.253Z,99.90
2019-05-03T21:46:11.413Z,99.90
2019-05-03T21:49:00.944Z,99.90
2019-05-03T21:51:34.595Z,99.90
2019-05-03T21:54:06.611Z,99.90
2019-05-03T21:56:35.933Z,99.90
2019-05-03T21:59:05.725Z,99.90
2019-05-03T22:01:37.610Z,99.90
2019-05-03T22:04:07.620Z,99.90
2019-05-03T22:06:37.272Z,99.90
2019-05-03T22:09:07.014Z,99.90
2019-05-03T22:11:36.837Z,99.90
2019-05-03T22:14:08.213Z,99.90
2019-05-03T22:16:42.574Z,99.90
2019-05-03T22:19:12.273Z,99.90
2019-05-03T22:21:46.107Z,99.90
2019-05-03T22:24:20.347Z,99.90
2019-05-03T22:26:54.582Z,99.90
2019-05-03T22:29:25.424Z,99.90
2019-05-03T22:31:55.216Z,99.90
2019-05-03T22:34:25.686Z,99.90
2019-05-03T22:36:55.560Z,99.90
2019-05-03T22:39:25.313Z,99.90
2019-05-03T22:41:54.974Z,99.90
2019-05-03T22:44:44.817Z,99.90
2019-05-03T22:47:14.800Z,99.90
2019-05-03T22:49:45.633Z,99.90
2019-05-03T22:52:15.509Z,99.90
2019-05-03T22:54:45.269Z,99.90
2019-05-03T22:57:15.352Z,99.90
2019-05-03T22:59:45.029Z,99.90
2019-05-03T23:02:16.813Z,99.90
2019-05-03T23:04:45.748Z,99.90
2019-05-03T23:07:15.263Z,99.90
2019-05-03T23:09:44.862Z,99.90
2019-05-03T23:12:14.404Z,99.90
2019-05-03T23:14:44.698Z,99.90
2019-05-03T23:17:14.924Z,99.90
2019-05-03T23:19:46.432Z,99.90
2019-05-03T23:22:17.589Z,99.90
2019-05-03T23:24:47.492Z,99.90
2019-05-03T23:27:17.398Z,99.90
2019-05-03T23:29:47.100Z,99.90
2019-05-03T23:32:16.632Z,99.90
2019-05-03T23:34:46.513Z,99.90
2019-05-03T23:37:16.640Z,99.90
2019-05-03T23:39:46.244Z,99.90
2019-05-03T23:42:15.708Z,99.90
2019-05-03T23:44:45.773Z,99.90
2019-05-03T23:47:34.477Z,99.90
2019-05-03T23:50:08.500Z,99.90
2019-05-03T23:52:38.035Z,99.90
2019-05-03T23:55:26.055Z,99.90
2019-05-03T23:57:55.704Z,99.90
